Time;durP1;ratioP1;P1;durP2;ratioP2;P2;SDS_P1;SDS_P2;PMS_P1;PMS_P2;Temp;Humidity;BMP_temperature;BMP_pressure;BME280_temperature;BME280_humidity;BME280_pressure;Samples;Min_cycle;Max_cycle;Signal;HPM_P1;HPM_P2
2022/09/02 00:02:05;;;;;;;0.70;0.70;;;19.50;49.50;;;22.16;39.35;102051.72;5052964;28;20627;-64
2022/09/02 00:04:35;;;;;;;1.47;0.87;;;19.50;49.60;;;22.13;39.12;102045.97;5053462;28;20276;-64
2022/09/02 00:07:03;;;;;;;1.10;1.00;;;19.50;49.70;;;22.11;39.36;102050.72;5054347;28;20220;-64
2022/09/02 00:09:30;;;;;;;1.70;0.80;;;19.50;49.90;;;22.09;39.67;102044.75;5057861;28;20212;-65
2022/09/02 00:11:58;;;;;;;1.77;0.90;;;19.40;50.00;;;22.08;39.69;102043.13;5057535;28;20708;-63
2022/09/02 00:14:32;;;;;;;0.90;0.90;;;19.40;50.10;;;22.05;40.05;102046.25;5056184;28;20280;-63
2022/09/02 00:17:00;;;;;;;1.10;1.00;;;19.40;50.20;;;22.03;40.18;102042.97;5057921;28;20188;-63
2022/09/02 00:19:30;;;;;;;0.80;0.80;;;19.40;50.30;;;22.04;39.91;102044.59;5057664;28;20420;-63
2022/09/02 00:22:00;;;;;;;5.10;1.07;;;19.40;50.30;;;21.99;39.76;102042.56;5056812;28;20556;-64
2022/09/02 00:24:28;;;;;;;3.83;0.80;;;19.30;50.30;;;21.94;40.11;102033.53;5057164;28;20179;-63
2022/09/02 00:26:55;;;;;;;1.23;0.90;;;19.30;50.50;;;21.90;40.27;102037.69;5057160;28;20190;-63
2022/09/02 00:29:24;;;;;;;1.13;1.03;;;19.20;50.60;;;21.89;40.17;102046.78;5056842;28;20292;-63
2022/09/02 00:31:51;;;;;;;1.10;1.00;;;19.20;50.80;;;21.88;40.54;102043.25;5056663;28;20221;-63
2022/09/02 00:34:19;;;;;;;1.30;1.00;;;19.20;50.80;;;21.88;40.05;102040.59;5055493;28;20190;-64
2022/09/02 00:36:47;;;;;;;2.37;1.03;;;19.20;50.80;;;21.86;40.66;102041.84;5056803;28;20194;-64
2022/09/02 00:39:16;;;;;;;2.90;0.97;;;19.20;51.00;;;21.84;40.67;102041.19;5056719;28;20192;-63
2022/09/02 00:41:44;;;;;;;1.33;1.00;;;19.20;51.00;;;21.81;40.64;102050.50;5056484;28;20292;-64
2022/09/02 00:44:16;;;;;;;1.77;1.27;;;19.10;51.00;;;21.80;40.71;102042.69;5056630;28;20197;-63
2022/09/02 00:46:45;;;;;;;1.43;1.20;;;19.10;51.10;;;21.75;40.45;102045.19;5056945;28;20202;-64
2022/09/02 00:49:23;;;;;;;2.10;1.33;;;19.10;51.30;;;21.67;40.93;102040.06;5056795;28;20214;-64
2022/09/02 00:52:00;;;;;;;2.73;1.10;;;19.00;51.40;;;21.64;41.06;102044.00;5056831;28;20214;-64
2022/09/02 00:54:35;;;;;;;1.97;1.20;;;19.00;51.60;;;21.61;40.65;102039.06;5056652;28;20273;-64
2022/09/02 00:57:11;;;;;;;1.10;1.00;;;19.00;51.60;;;21.58;40.60;102036.84;5056542;28;20654;-64
2022/09/02 00:59:47;;;;;;;0.80;0.80;;;18.90;51.80;;;21.54;41.15;102028.38;5056172;28;20204;-63
2022/09/02 01:02:16;;;;;;;1.70;0.90;;;18.90;51.90;;;21.56;41.15;102031.66;5056311;28;20205;-63
2022/09/02 01:04:45;;;;;;;1.47;0.70;;;18.90;52.00;;;21.57;41.31;102027.97;5056740;28;20185;-64
2022/09/02 01:07:14;;;;;;;0.93;0.83;;;18.90;52.00;;;21.58;41.17;102029.59;5056253;28;20236;-64
2022/09/02 01:09:43;;;;;;;1.67;0.90;;;18.90;52.20;;;21.56;41.59;102023.63;5056304;28;20254;-64
2022/09/02 01:12:13;;;;;;;0.80;0.80;;;18.90;52.10;;;21.55;41.67;102024.69;5056261;28;20824;-64
2022/09/02 01:14:41;;;;;;;1.07;0.90;;;18.90;52.10;;;21.54;41.67;102023.03;5057294;28;20235;-63
2022/09/02 01:17:09;;;;;;;1.10;1.00;;;18.90;52.10;;;21.52;41.68;102021.59;5056276;28;20194;-63
2022/09/02 01:19:44;;;;;;;0.70;0.70;;;18.90;52.40;;;21.48;41.19;102010.50;5042650;28;20273;-62
2022/09/02 01:22:21;;;;;;;1.63;1.20;;;18.80;52.30;;;21.45;41.54;102013.59;5036032;28;20217;-64
2022/09/02 01:24:49;;;;;;;1.17;1.03;;;18.80;52.50;;;21.42;41.41;102014.03;5036491;28;20185;-62
2022/09/02 01:27:20;;;;;;;0.73;0.73;;;18.80;52.60;;;21.38;42.09;102014.66;5048263;28;20209;-64
2022/09/02 01:29:51;;;;;;;1.17;0.87;;;18.80;52.80;;;21.34;42.14;102011.63;5055720;28;20317;-62
2022/09/02 01:32:19;;;;;;;0.80;0.80;;;18.70;52.80;;;21.32;41.59;102013.66;5055766;28;20666;-64
2022/09/02 01:34:47;;;;;;;1.47;1.00;;;18.70;52.80;;;21.31;42.08;102014.72;5055757;28;20186;-61
2022/09/02 01:37:17;;;;;;;0.97;0.97;;;18.60;52.80;;;21.30;42.19;102010.38;5055800;28;20190;-62
2022/09/02 01:39:45;;;;;;;1.03;0.93;;;18.70;53.00;;;21.29;41.81;102013.28;5056072;28;20612;-64
2022/09/02 01:42:13;;;;;;;1.07;1.00;;;18.70;53.20;;;21.29;41.71;102013.28;5055718;28;20222;-63
2022/09/02 01:44:44;;;;;;;2.43;1.00;;;18.70;53.20;;;21.29;42.04;102007.91;5055264;28;20201;-65
2022/09/02 01:47:13;;;;;;;0.93;0.90;;;18.70;53.20;;;21.31;41.86;101997.81;5055377;28;20201;-64
2022/09/02 01:49:41;;;;;;;1.30;1.20;;;18.70;53.20;;;21.33;41.87;102004.59;5055146;28;20240;-62
2022/09/02 01:52:09;;;;;;;1.83;1.40;;;18.70;53.10;;;21.34;42.34;102000.91;5055156;28;20209;-63
2022/09/02 01:54:39;;;;;;;1.90;1.20;;;18.60;53.00;;;21.33;42.14;102001.91;5055034;28;20200;-63
2022/09/02 01:57:06;;;;;;;1.77;0.90;;;18.70;53.10;;;21.31;41.88;101995.97;5055111;28;20579;-63
2022/09/02 01:59:33;;;;;;;0.97;0.70;;;18.60;53.10;;;21.28;42.34;101991.03;5054975;28;20202;-63
2022/09/02 02:02:01;;;;;;;1.20;1.10;;;18.60;53.20;;;21.26;41.95;101997.63;5055222;28;20205;-63
2022/09/02 02:04:28;;;;;;;1.23;1.10;;;18.50;53.30;;;21.21;42.48;101995.59;5055142;28;20272;-63
2022/09/02 02:06:56;;;;;;;1.00;1.00;;;18.50;54.00;;;21.17;42.56;101994.38;5055298;28;20193;-63
2022/09/02 02:09:24;;;;;;;0.90;0.90;;;18.50;53.50;;;21.13;42.60;101998.53;5055117;28;20293;-63
2022/09/02 02:11:53;;;;;;;1.73;0.73;;;18.40;53.70;;;;;;5054952;28;20284;-63
2022/09/02 02:14:20;;;;;;;1.20;1.10;;;18.40;53.70;;;21.05;42.68;101993.41;5055033;28;20674;-63
2022/09/02 02:16:50;;;;;;;1.00;0.90;;;18.40;53.70;;;21.03;42.73;101997.28;5055038;28;20197;-62
2022/09/02 02:19:18;;;;;;;0.90;0.90;;;18.30;53.70;;;21.00;42.64;101990.50;5055083;28;20201;-63
2022/09/02 02:21:45;;;;;;;1.20;1.10;;;18.30;54.00;;;20.96;42.65;101989.28;5054951;28;20225;-63
2022/09/02 02:24:13;;;;;;;2.17;1.20;;;18.30;54.00;;;20.91;43.01;101989.09;5054284;28;20293;-63
2022/09/02 02:26:41;;;;;;;1.20;1.10;;;18.20;54.00;;;20.87;43.20;101995.94;5054707;28;20189;-64
2022/09/02 02:29:10;;;;;;;1.20;1.10;;;18.20;54.40;;;20.83;42.97;101995.50;5054721;28;20217;-63
2022/09/02 02:31:38;;;;;;;1.40;1.10;;;18.10;54.60;;;20.81;43.59;101988.72;5053907;28;20222;-64
2022/09/02 02:34:09;;;;;;;1.00;1.00;;;18.10;54.70;;;20.79;43.53;101988.13;5054790;28;20239;-63
2022/09/02 02:36:37;;;;;;;2.20;1.40;;;18.10;54.80;;;20.81;43.47;101988.72;5061505;28;20197;-63
2022/09/02 02:39:08;;;;;;;1.57;1.20;;;18.10;54.80;;;20.83;43.17;101986.66;5074755;28;20650;-62
2022/09/02 02:41:37;;;;;;;1.43;1.30;;;18.10;54.90;;;20.84;43.21;101972.25;5074522;28;20181;-66
2022/09/02 02:44:05;;;;;;;1.60;1.13;;;18.20;54.80;;;20.85;43.47;101973.88;5072370;28;20200;-63
2022/09/02 02:46:34;;;;;;;1.10;1.00;;;18.20;54.80;;;20.85;43.38;101973.88;5056183;28;20190;-64
2022/09/02 02:49:04;;;;;;;1.03;1.00;;;18.20;54.80;;;20.85;43.16;101971.19;5055633;28;20210;-64
2022/09/02 02:51:33;;;;;;;1.47;1.27;;;18.20;54.80;;;20.84;43.65;101972.25;5054761;28;20190;-63
2022/09/02 02:54:01;;;;;;;2.20;1.40;;;18.20;55.00;;;20.83;43.21;101971.41;5054308;28;20194;-63
2022/09/02 02:56:30;;;;;;;1.27;1.17;;;18.20;55.00;;;20.83;43.57;101963.38;5054328;28;20635;-63
2022/09/02 02:59:01;;;;;;;2.37;0.77;;;18.20;55.10;;;20.85;43.84;101971.19;5053810;28;20919;-63
2022/09/02 03:01:30;;;;;;;1.10;1.10;;;18.10;55.00;;;20.86;43.62;101964.81;5068890;28;20182;-63
2022/09/02 03:03:59;;;;;;;1.67;1.57;;;18.20;55.10;;;20.86;43.61;101965.66;5053823;28;20186;-63
2022/09/02 03:06:27;;;;;;;1.40;1.07;;;18.20;55.10;;;20.86;43.69;101964.81;5053742;28;20678;-63
2022/09/02 03:08:56;;;;;;;2.87;1.30;;;18.20;55.10;;;20.86;43.69;101964.81;5053682;28;20202;-62
2022/09/02 03:11:27;;;;;;;3.63;1.10;;;18.20;55.10;;;20.84;43.81;101961.53;5053355;28;20647;-63
2022/09/02 03:13:55;;;;;;;1.27;1.17;;;18.20;55.20;;;20.87;43.41;101955.78;5054929;28;20174;-62
2022/09/02 03:16:22;;;;;;;7.37;1.50;;;18.20;55.10;;;20.86;43.88;101965.66;5053856;28;20208;-62
2022/09/02 03:18:50;;;;;;;1.20;1.10;;;18.20;55.10;;;20.85;43.88;101964.00;5053537;28;20269;-63
2022/09/02 03:21:19;;;;;;;1.03;1.00;;;18.20;55.10;;;20.85;43.43;101952.47;5053244;28;20227;-63
2022/09/02 03:23:47;;;;;;;2.10;1.50;;;18.20;55.00;;;20.85;43.73;101960.50;5053781;28;20208;-62
2022/09/02 03:26:20;;;;;;;2.87;1.10;;;18.20;55.30;;;20.85;43.40;101957.81;5053280;28;20205;-62
2022/09/02 03:28:48;;;;;;;1.20;1.10;;;18.20;55.20;;;20.86;43.52;101952.28;5068785;28;20547;-63
2022/09/02 03:31:19;;;;;;;1.30;1.07;;;18.20;55.20;;;20.86;43.76;101957.63;5053037;28;20201;-63
2022/09/02 03:33:48;;;;;;;1.93;1.23;;;18.20;55.00;;;20.87;43.76;101955.78;5078658;28;20231;-63
2022/09/02 03:36:24;;;;;;;1.47;1.30;;;18.20;55.00;;;20.83;43.40;101960.72;5069523;28;20194;-63
2022/09/02 03:38:52;;;;;;;1.20;1.10;;;18.20;55.30;;;20.83;43.64;101963.38;5053562;28;20185;-63
2022/09/02 03:41:20;;;;;;;1.03;0.90;;;18.20;55.30;;;20.85;43.55;101963.16;5052700;28;20190;-63
2022/09/02 03:43:48;;;;;;;1.63;1.10;;;18.20;55.20;;;20.82;44.00;101958.25;5052923;28;20538;-63
2022/09/02 03:46:17;;;;;;;1.33;1.13;;;18.20;55.30;;;20.80;43.57;101960.34;5052992;28;20190;-63
2022/09/02 03:48:45;;;;;;;2.07;1.10;;;18.20;55.40;;;20.77;43.96;101961.56;5052672;28;20259;-63
2022/09/02 03:51:13;;;;;;;2.27;1.50;;;18.10;55.40;;;20.73;44.17;101959.50;5053010;28;20190;-63
2022/09/02 03:53:41;;;;;;;2.43;1.27;;;18.10;55.50;;;20.71;44.07;101956.22;5053013;28;20210;-63
2022/09/02 03:56:13;;;;;;;1.27;1.13;;;18.10;55.60;;;20.68;44.28;101949.44;5052915;28;20200;-63
2022/09/02 03:58:41;;;;;;;1.40;1.27;;;18.00;55.70;;;20.66;44.31;101958.69;5052843;28;20189;-63
2022/09/02 04:01:14;;;;;;;2.10;0.90;;;18.00;55.80;;;20.61;44.06;101950.50;5052629;28;20225;-63
2022/09/02 04:03:41;;;;;;;1.33;1.23;;;18.00;56.00;;;20.61;44.58;101950.50;5052595;28;20284;-63
2022/09/02 04:06:11;;;;;;;2.40;1.40;;;17.90;56.00;;;20.62;44.40;101952.13;5053096;28;20673;-63
2022/09/02 04:08:42;;;;;;;2.80;1.17;;;18.00;56.00;;;20.61;44.51;101953.19;5052826;28;20569;-64
2022/09/02 04:11:13;;;;;;;2.07;1.40;;;17.90;55.90;;;20.62;44.54;101949.47;5052821;28;20550;-63
2022/09/02 04:13:41;;;;;;;1.53;1.40;;;18.00;56.00;;;20.62;44.50;101954.81;5052495;28;20210;-63
2022/09/02 04:16:12;;;;;;;1.50;1.40;;;17.90;56.10;;;20.60;44.76;101951.53;5052792;28;20205;-62
2022/09/02 04:18:40;;;;;;;1.97;1.40;;;18.00;56.20;;;20.62;44.63;101952.13;5052660;28;20174;-63
2022/09/02 04:21:08;;;;;;;1.87;1.60;;;18.00;56.20;;;20.60;44.53;101954.22;5052695;28;20194;-63
2022/09/02 04:23:36;;;;;;;1.30;1.20;;;17.90;56.20;;;20.58;44.41;101945.56;5053035;28;20516;-63
2022/09/02 04:26:09;;;;;;;1.50;1.30;;;17.90;56.20;;;20.54;44.84;101949.72;5052432;28;20190;-63
2022/09/02 04:28:36;;;;;;;2.50;1.10;;;17.90;56.40;;;20.53;44.92;101948.06;5052669;28;20538;-63
2022/09/02 04:31:06;;;;;;;2.33;1.20;;;17.90;56.40;;;20.50;44.88;101951.13;5052293;28;20198;-63
2022/09/02 04:33:34;;;;;;;1.47;1.17;;;17.80;56.50;;;20.46;44.72;101947.25;5052393;28;20214;-62
2022/09/02 04:36:05;;;;;;;2.73;1.47;;;17.80;56.60;;;20.41;44.71;101949.72;5052630;28;20193;-62
2022/09/02 04:38:33;;;;;;;2.87;1.40;;;17.80;56.80;;;20.38;45.30;101947.47;5052644;28;20190;-63
2022/09/02 04:41:08;;;;;;;6.50;1.57;;;17.70;56.80;;;20.31;45.44;101944.81;5052270;28;20198;-62
2022/09/02 04:43:36;;;;;;;1.37;1.27;;;17.70;57.00;;;20.29;45.44;101954.06;5052116;28;20214;-63
2022/09/02 04:46:07;;;;;;;1.43;1.33;;;17.60;57.10;;;20.25;45.55;101957.16;5051574;28;20562;-63
2022/09/02 04:48:36;;;;;;;1.70;1.30;;;17.60;57.30;;;20.19;45.67;101947.28;5053053;28;20619;-63
2022/09/02 04:51:05;;;;;;;5.93;1.33;;;17.50;57.60;;;20.16;46.12;101953.03;5052479;28;20190;-63
2022/09/02 04:53:33;;;;;;;1.40;1.30;;;17.50;57.80;;;20.16;46.12;101953.03;5052748;28;20202;-63
2022/09/02 04:56:04;;;;;;;1.50;1.40;;;17.50;57.90;;;20.15;45.70;101954.06;5056303;28;20194;-63
2022/09/02 04:58:33;;;;;;;1.40;1.30;;;17.50;57.90;;;20.12;46.23;101950.97;5055681;28;20663;-63
2022/09/02 05:01:05;;;;;;;2.57;1.77;;;17.50;58.20;;;20.14;46.13;101952.41;5056081;28;20198;-63
2022/09/02 05:03:33;;;;;;;1.93;1.47;;;17.50;58.00;;;20.15;46.12;101946.03;5055810;28;20305;-63
2022/09/02 05:06:05;;;;;;;1.50;1.40;;;17.50;58.00;;;20.17;46.10;101946.66;5055950;28;20598;-65
2022/09/02 05:08:35;;;;;;;1.90;1.43;;;17.50;57.90;;;20.19;46.20;101949.94;5055418;28;20192;-64
2022/09/02 05:11:04;;;;;;;2.13;1.30;;;17.50;58.00;;;20.19;45.68;101952.63;5055206;28;20560;-63
2022/09/02 05:13:34;;;;;;;2.80;1.30;;;17.50;58.00;;;20.18;46.13;101945.59;5054869;28;20244;-63
2022/09/02 05:16:02;;;;;;;2.33;1.30;;;17.50;58.10;;;20.18;46.13;101945.59;5055693;28;20280;-63
2022/09/02 05:18:30;;;;;;;1.57;1.20;;;17.50;58.30;;;20.19;46.26;101947.28;5055214;28;20243;-63
2022/09/02 05:20:57;;;;;;;3.60;3.23;;;17.50;58.20;;;20.19;46.36;101941.91;5055011;28;20197;-64
2022/09/02 05:23:25;;;;;;;1.57;1.47;;;17.50;58.30;;;20.19;46.19;101941.91;5055488;28;20701;-64
2022/09/02 05:25:52;;;;;;;3.10;2.47;;;17.50;58.20;;;20.18;46.25;101942.94;5055491;28;20190;-63
2022/09/02 05:28:19;;;;;;;2.33;2.13;;;17.50;58.40;;;20.20;46.05;101943.56;5055073;28;20212;-65
2022/09/02 05:30:48;;;;;;;2.00;1.80;;;17.50;58.30;;;20.22;46.22;101949.56;5055102;28;20213;-63
2022/09/02 05:33:16;;;;;;;3.80;3.47;;;17.50;58.30;;;20.22;46.22;101941.53;5055979;28;20259;-62
2022/09/02 05:35:43;;;;;;;4.03;2.40;;;17.50;58.40;;;20.24;46.38;101944.00;5055335;28;20190;-65
2022/09/02 05:38:16;;;;;;;5.30;3.40;;;17.50;58.50;;;20.24;46.41;101944.81;5055066;28;20521;-65
2022/09/02 05:40:43;;;;;;;2.20;1.80;;;17.50;58.50;;;20.25;46.14;101946.44;5054726;28;20205;-62
2022/09/02 05:43:11;;;;;;;2.50;1.70;;;17.50;58.50;;;20.27;46.09;101948.13;5054427;28;20292;-63
2022/09/02 05:45:39;;;;;;;2.53;1.87;;;17.50;58.50;;;20.28;46.12;101947.09;5054725;28;20301;-65
2022/09/02 05:50:55;;;;;;;2.23;1.77;;;17.60;58.50;;;20.35;46.08;101945.22;5054486;28;20208;-63
2022/09/02 05:53:25;;;;;;;4.93;1.70;;;17.60;58.40;;;20.42;46.21;101948.72;5054525;28;20206;-65
2022/09/02 05:55:53;;;;;;;3.10;1.73;;;17.70;58.30;;;20.47;46.13;101949.69;5054670;28;20248;-63
2022/09/02 05:58:21;;;;;;;2.47;1.73;;;17.70;58.20;;;20.52;45.80;101941.88;5054658;28;20190;-64
2022/09/02 06:00:48;;;;;;;6.17;2.00;;;17.80;58.10;;;20.57;45.49;101943.91;5054100;28;20194;-64
2022/09/02 06:03:19;;;;;;;2.43;1.70;;;17.90;57.90;;;20.61;45.57;101945.97;5054511;28;20206;-65
2022/09/02 06:05:54;;;;;;;2.37;1.80;;;17.90;57.90;;;20.64;45.35;101939.38;5053804;28;20554;-62
2022/09/02 06:08:22;;;;;;;3.17;1.40;;;17.90;57.80;;;20.71;45.18;101945.50;5055059;28;20181;-63
2022/09/02 06:10:50;;;;;;;2.93;1.83;;;18.00;57.80;;;20.76;45.01;101932.31;5054525;28;20228;-65
2022/09/02 06:13:21;;;;;;;6.10;2.10;;;18.00;57.60;;;20.83;44.86;101933.13;5070252;28;20213;-65
2022/09/02 06:15:49;;;;;;;2.73;1.87;;;18.10;57.50;;;20.89;44.98;101932.28;5054334;28;20192;-64
2022/09/02 06:18:18;;;;;;;3.30;2.00;;;18.10;57.30;;;20.91;45.19;101930.22;5053970;28;20529;-64
2022/09/02 06:20:47;;;;;;;4.00;2.70;;;18.20;57.30;;;20.93;44.79;101930.81;5053940;28;20189;-64
2022/09/02 06:23:15;;;;;;;5.90;2.77;;;18.20;57.00;;;20.94;44.81;101932.47;5053563;28;20316;-64
2022/09/02 06:25:46;;;;;;;9.00;5.07;;;18.20;57.20;;;20.97;44.58;101934.69;5054175;28;20196;-64
2022/09/02 06:28:15;;;;;;;7.80;5.57;;;18.20;57.10;;;20.99;44.61;101932.63;5055242;28;20193;-64
2022/09/02 06:30:47;;;;;;;4.17;3.70;;;18.20;57.10;;;21.04;44.80;101940.03;5053554;28;20335;-64
2022/09/02 06:33:14;;;;;;;3.33;2.40;;;18.30;57.20;;;21.05;44.88;101937.19;5059027;28;20224;-63
2022/09/02 06:35:45;;;;;;;2.50;2.00;;;18.30;57.20;;;21.13;44.78;101944.97;5073718;28;20213;-63
2022/09/02 06:38:13;;;;;;;3.03;1.90;;;18.40;57.10;;;21.19;44.27;101938.75;5073683;28;20196;-63
2022/09/02 06:40:47;;;;;;;2.93;2.10;;;18.40;57.00;;;21.26;44.57;101939.53;5073483;28;20186;-63
2022/09/02 06:43:15;;;;;;;2.57;2.00;;;18.40;56.90;;;21.33;44.03;101934.13;5073328;28;20205;-63
2022/09/02 06:45:43;;;;;;;2.33;1.90;;;18.50;56.80;;;21.39;43.99;101942.13;5073346;28;20499;-65
2022/09/02 06:48:12;;;;;;;1.70;1.60;;;18.60;56.80;;;21.44;44.16;101942.28;5073468;28;20215;-64
2022/09/02 06:50:45;;;;;;;7.80;7.10;;;18.60;56.60;;;21.49;44.08;101934.41;5073101;28;20702;-64
2022/09/02 06:53:13;;;;;;;11.10;9.00;;;18.60;56.50;;;21.57;43.33;101936.84;5073398;28;20236;-64
2022/09/02 06:55:44;;;;;;;3.77;2.80;;;18.70;56.40;;;21.69;43.66;101941.50;5073589;28;20196;-64
2022/09/02 06:58:13;;;;;;;2.90;1.90;;;18.80;56.40;;;21.78;43.63;101934.81;5074467;28;20287;-64
2022/09/02 07:00:42;;;;;;;2.37;2.13;;;18.90;56.20;;;21.85;43.20;101930.25;5074523;28;20200;-63
2022/09/02 07:06:08;;;;;;;2.37;2.00;;;19.00;55.80;;;21.94;42.84;101931.66;5073140;28;20193;-62
2022/09/02 07:08:37;;;;;;;2.03;1.83;;;19.10;55.70;;;22.04;42.77;101926.56;5073453;28;20178;-64
2022/09/02 07:11:07;;;;;;;3.13;1.77;;;19.10;55.70;;;22.16;42.76;101930.19;5072994;28;20217;-62
2022/09/02 07:13:34;;;;;;;2.43;1.80;;;19.30;55.50;;;22.31;42.53;101922.59;5088701;28;20221;-64
2022/09/02 07:16:04;;;;;;;2.10;1.57;;;19.40;55.50;;;22.67;42.29;101919.97;5073270;28;20193;-64
2022/09/02 07:18:31;;;;;;;1.63;1.53;;;19.50;55.50;;;23.18;41.10;101930.22;5070984;28;20196;-65
2022/09/02 07:21:00;;;;;;;2.23;1.77;;;19.70;55.00;;;23.72;40.43;101923.84;5052945;28;20211;-63
2022/09/02 07:23:29;;;;;;;2.87;1.77;;;20.00;54.80;;;24.33;39.28;101922.56;5068503;28;20221;-63
2022/09/02 07:25:56;;;;;;;1.50;1.40;;;20.40;55.00;;;25.02;37.84;101917.03;5053146;28;20189;-65
2022/09/02 07:28:25;;;;;;;1.97;1.77;;;20.80;53.50;;;25.82;36.55;101919.50;5053112;28;20673;-63
2022/09/02 07:30:54;;;;;;;3.70;1.50;;;21.30;52.20;;;26.67;35.04;101906.41;5052851;28;20205;-63
2022/09/02 07:33:26;;;;;;;2.73;1.90;;;21.90;51.30;;;27.51;34.19;101912.97;5058777;28;20217;-64
2022/09/02 07:35:54;;;;;;;2.97;1.90;;;22.50;50.00;;;28.28;32.74;101901.59;5072451;28;20189;-63
2022/09/02 07:38:21;;;;;;;2.03;1.63;;;23.20;48.50;;;29.07;31.24;101915.72;5073208;28;20197;-65
2022/09/02 07:40:50;;;;;;;2.70;1.77;;;23.80;47.30;;;29.89;30.10;101905.47;5072680;28;20181;-65
2022/09/02 07:43:23;;;;;;;2.47;1.50;;;24.40;45.80;;;30.65;29.21;101908.75;5072509;28;20259;-63
2022/09/02 07:45:52;;;;;;;4.07;2.23;;;25.00;44.20;;;31.24;27.86;101905.16;5055611;28;20193;-64
2022/09/02 07:48:20;;;;;;;4.27;2.63;;;25.60;43.20;;;31.85;27.17;101903.56;5052582;28;20193;-65
2022/09/02 07:50:48;;;;;;;4.07;3.07;;;26.10;41.50;;;32.48;26.60;101897.94;5052376;28;20213;-63
2022/09/02 07:53:16;;;;;;;3.47;2.80;;;26.70;40.00;;;33.03;25.58;101910.88;5065073;28;20209;-64
2022/09/02 07:55:44;;;;;;;1.57;1.47;;;27.20;38.80;;;33.40;24.72;101905.34;5072382;28;20638;-64
2022/09/02 07:58:18;;;;;;;3.40;1.50;;;27.70;37.70;;;33.68;24.56;101905.44;5072467;28;20212;-65
2022/09/02 08:00:47;;;;;;;2.63;1.73;;;28.10;36.20;;;33.92;24.16;101906.09;5072784;28;20205;-64
2022/09/02 08:03:15;;;;;;;3.00;2.07;;;28.50;35.40;;;34.11;23.86;101898.66;5072722;28;20247;-64
2022/09/02 08:05:45;;;;;;;2.30;2.10;;;28.80;34.80;;;34.63;23.56;101906.31;5072615;28;20653;-63
2022/09/02 08:08:15;;;;;;;2.30;2.10;;;29.10;34.40;;;35.37;22.87;101906.78;5073225;28;20196;-65
2022/09/02 08:10:49;;;;;;;3.93;1.50;;;29.40;34.00;;;36.05;22.20;101909.13;5087940;28;20216;-67
2022/09/02 08:13:18;;;;;;;1.20;1.20;;;29.80;33.00;;;36.67;20.82;101909.78;5072804;28;20207;-64
2022/09/02 08:15:47;;;;;;;1.97;1.63;;;30.20;32.50;;;37.09;20.50;101910.94;5061655;28;20686;-64
2022/09/02 08:18:17;;;;;;;2.27;1.80;;;30.50;31.60;;;37.39;20.10;101912.72;5052785;28;20186;-65
2022/09/02 08:20:49;;;;;;;2.03;1.70;;;30.90;30.90;;;37.54;20.30;101909.44;5052395;28;20257;-64
2022/09/02 08:23:16;;;;;;;6.70;6.13;;;31.20;30.00;;;37.72;20.19;101907.47;5052943;28;20709;-64
2022/09/02 08:26:04;;;;;;;3.77;3.40;;;31.40;29.70;;;38.13;19.87;101904.88;5052306;28;20190;-64
2022/09/02 08:28:34;;;;;;;4.93;2.20;;;31.60;29.30;;;38.39;19.17;101905.56;5053398;28;20616;-64
2022/09/02 08:31:05;;;;;;;5.43;2.27;;;31.90;29.10;;;38.75;18.95;101902.25;5056450;28;20682;-63
2022/09/02 08:33:33;;;;;;;1.93;1.80;;;32.00;29.00;;;38.92;18.64;101909.56;5056340;28;20682;-64
2022/09/02 08:36:03;;;;;;;1.60;1.50;;;32.20;28.80;;;39.26;18.71;101903.75;5056272;28;20193;-66
2022/09/02 08:38:31;;;;;;;1.93;1.70;;;32.40;28.60;;;39.59;18.47;101904.56;5056140;28;20190;-64
2022/09/02 08:40:59;;;;;;;2.35;2.15;;;32.70;28.30;;;39.79;18.18;101903.69;5056632;28;20186;-64
2022/09/02 08:43:39;;;;;;;3.47;1.60;;;32.90;27.90;;;39.82;17.70;101907.72;5070966;28;20248;-65
2022/09/02 08:46:14;;;;;;;1.88;1.63;;;33.20;27.70;;;39.75;17.74;101891.69;5055905;28;20288;-64
2022/09/02 08:48:49;;;;;;;2.50;2.30;;;33.40;27.10;;;39.93;17.83;101900.59;5061462;28;20223;-64
2022/09/02 08:51:26;;;;;;;6.05;2.20;;;33.60;27.00;;;40.27;17.18;101883.53;5075682;28;20258;-65
2022/09/02 08:54:06;;;;;;;7.63;6.53;;;33.70;26.80;;;40.67;16.87;101891.91;5036294;28;20183;-64
2022/09/02 08:56:34;;;;;;;3.22;2.10;;;33.90;26.50;;;40.83;16.96;101892.75;5035981;28;20191;-64
2022/09/02 08:59:05;;;;;;;3.95;2.10;;;34.10;26.30;;;40.94;16.74;101891.13;5035972;28;20679;-65
2022/09/02 09:01:46;;;;;;;4.85;2.92;;;34.20;25.80;;;41.02;16.16;101884.66;5036188;28;20361;-64
2022/09/02 09:04:57;;;;;;;6.38;5.88;;;34.40;25.90;;;41.18;16.66;101885.50;5038306;28;20258;-64
2022/09/02 09:07:36;;;;;;;10.23;2.90;;;34.50;25.60;;;41.30;16.67;101878.28;5037851;28;20201;-65
2022/09/02 09:10:17;;;;;;;6.10;4.28;;;34.70;25.50;;;41.58;16.31;101873.53;5036270;28;20191;-64
2022/09/02 09:13:09;;;;;;;6.72;2.20;;;34.90;25.60;;;41.64;15.67;101872.09;5051771;28;20244;-64
2022/09/02 09:15:51;;;;;;;2.45;2.20;;;34.90;25.50;;;41.63;16.20;101874.03;5055683;28;20656;-66
2022/09/02 09:18:27;;;;;;;3.40;2.30;;;35.10;24.90;;;41.70;15.92;101877.00;5056170;28;20581;-66
2022/09/02 09:20:55;;;;;;;2.50;2.30;;;35.10;24.70;;;41.87;15.49;101873.06;5055365;28;20571;-65
2022/09/02 09:23:29;;;;;;;2.30;2.10;;;35.20;24.70;;;42.19;15.35;101860.81;5055291;28;20229;-65
2022/09/02 09:26:12;;;;;;;2.22;2.05;;;35.30;24.70;;;42.31;15.25;101857.91;5055804;28;20196;-65
2022/09/02 09:28:44;;;;;;;4.05;2.33;;;35.40;24.30;;;42.24;14.99;101855.00;5055810;28;20240;-66
2022/09/02 09:31:17;;;;;;;4.40;2.25;;;35.60;24.00;;;42.43;14.91;101855.03;5054969;28;20577;-64
2022/09/02 09:33:59;;;;;;;3.72;2.08;;;35.70;24.00;;;42.75;14.79;101844.59;5064385;28;20243;-65
2022/09/02 09:36:46;;;;;;;5.88;2.28;;;35.90;24.00;;;42.61;14.66;101843.50;5069479;28;20261;-66
2022/09/02 09:39:21;;;;;;;3.10;2.60;;;36.10;23.60;;;42.32;14.78;101831.81;5054683;28;20192;-64
2022/09/02 09:41:51;;;;;;;4.68;4.30;;;36.20;23.40;;;42.29;14.58;101832.53;5054484;28;20205;-65
2022/09/02 09:44:38;;;;;;;4.65;2.30;;;36.20;23.30;;;42.59;14.63;101829.22;5054931;28;20190;-66
2022/09/02 09:47:09;;;;;;;3.20;2.35;;;36.20;23.40;;;42.86;14.74;101828.19;5054685;28;20538;-65
2022/09/02 09:49:44;;;;;;;2.80;2.60;;;36.20;23.50;;;43.08;14.23;101825.44;5053748;28;20197;-65
2022/09/02 09:52:23;;;;;;;2.30;2.10;;;36.40;23.20;;;43.32;14.34;101813.22;5054650;28;20653;-64
2022/09/02 09:55:10;;;;;;;2.60;2.10;;;36.50;23.10;;;43.62;13.62;101822.44;5055019;28;20599;-65
2022/09/02 09:57:40;;;;;;;2.75;2.38;;;36.60;22.60;;;43.72;13.66;101821.81;5055073;28;20182;-65
2022/09/02 10:00:20;;;;;;;4.70;2.20;;;36.70;22.50;;;43.78;13.62;101818.72;5054211;28;20237;-66
2022/09/02 10:02:53;;;;;;;1.70;1.60;;;36.80;22.30;;;43.46;12.99;101809.91;5052109;28;20300;-64
2022/09/02 10:05:34;;;;;;;1.73;1.63;;;36.80;21.50;;;43.44;13.50;101813.03;5054573;28;20198;-64
2022/09/02 10:08:05;;;;;;;3.33;3.05;;;37.00;21.90;;;43.25;13.56;101812.25;5051526;28;20186;-65
2022/09/02 10:11:00;;;;;;;2.50;2.28;;;37.00;21.50;;;43.37;13.78;101810.13;5069349;28;20220;-65
2022/09/02 10:13:31;;;;;;;3.90;2.30;;;37.20;21.90;;;43.49;13.18;101807.16;5054698;28;20272;-65
2022/09/02 10:16:20;;;;;;;3.50;2.30;;;37.20;21.20;;;43.80;13.28;101810.81;5053837;28;20224;-65
2022/09/02 10:18:55;;;;;;;2.67;2.10;;;37.40;21.00;;;43.92;12.73;101799.50;5054093;28;20182;-65
2022/09/02 10:21:47;;;;;;;3.33;2.20;;;37.50;20.90;;;43.94;12.47;101799.91;5069269;28;20189;-66
2022/09/02 10:24:41;;;;;;;3.13;2.13;;;37.60;20.60;;;43.96;12.57;101789.25;5054450;28;20194;-66
2022/09/02 10:27:20;;;;;;;2.13;1.92;;;37.60;20.30;;;43.90;12.70;101783.22;5054003;28;20250;-65
2022/09/02 10:29:58;;;;;;;9.65;2.03;;;37.70;20.30;;;43.94;12.63;101786.03;5053635;28;20307;-65
2022/09/02 10:33:01;;;;;;;2.67;1.90;;;37.70;20.50;;;43.95;12.45;101782.09;5053620;28;20228;-65
2022/09/02 10:35:41;;;;;;;4.75;4.35;;;37.70;20.30;;;43.41;12.69;101777.69;5033515;28;20187;-65